Time;durP1;ratioP1;P1;durP2;ratioP2;P2;SDS_P1;SDS_P2;PMS_P1;PMS_P2;Temp;Humidity;BMP_temperature;BMP_pressure;BME280_temperature;BME280_humidity;BME280_pressure;Samples;Min_cycle;Max_cycle;Signal;HPM_P1;HPM_P2
2023/07/02 00:00:59;;;;;;;4.80;4.40;;;16.80;99.90;;;;;;5117929;28;20184;-53
2023/07/02 00:03:24;;;;;;;4.90;4.37;;;16.90;99.90;;;;;;5119740;28;20552;-51
2023/07/02 00:05:53;;;;;;;4.47;4.07;;;16.80;99.90;;;;;;5084092;28;20512;-52
2023/07/02 00:08:18;;;;;;;4.20;3.80;;;16.90;99.90;;;;;;5118689;28;20203;-52
2023/07/02 00:10:44;;;;;;;4.50;4.10;;;17.00;99.90;;;;;;5118232;28;20427;-56
2023/07/02 00:13:10;;;;;;;4.60;4.20;;;16.90;44.20;;;;;;5118143;28;20191;-53
2023/07/02 00:15:36;;;;;;;4.60;4.20;;;16.90;31.50;;;;;;5123172;27;20175;-55
2023/07/02 00:18:02;;;;;;;5.17;4.67;;;16.90;83.10;;;;;;5138001;27;20202;-52
2023/07/02 00:20:27;;;;;;;5.20;4.70;;;16.80;77.90;;;;;;5137180;27;20428;-56
2023/07/02 00:22:54;;;;;;;4.90;4.40;;;16.80;73.50;;;;;;5137962;27;20419;-52
2023/07/02 00:25:20;;;;;;;4.67;4.27;;;16.80;68.10;;;;;;5137175;27;20221;-54
2023/07/02 00:27:45;;;;;;;4.60;4.20;;;16.80;56.10;;;;;;5119001;27;20424;-54
2023/07/02 00:30:11;;;;;;;4.67;4.27;;;16.90;93.00;;;;;;5136167;27;20327;-48
2023/07/02 00:32:37;;;;;;;4.10;3.70;;;17.00;55.50;;;;;;5134325;27;20315;-52
2023/07/02 00:35:03;;;;;;;4.23;3.63;;;17.00;11.30;;;;;;5117233;27;20438;-52
2023/07/02 00:37:28;;;;;;;4.40;3.80;;;17.10;1.00;;;;;;5136235;27;20389;-50
2023/07/02 00:39:54;;;;;;;4.57;4.17;;;17.10;1.00;;;;;;5136392;27;20278;-52
2023/07/02 00:42:20;;;;;;;4.63;4.13;;;17.10;1.00;;;;;;5136530;27;20171;-54
2023/07/02 00:44:45;;;;;;;4.57;4.17;;;17.20;1.00;;;;;;5136302;27;20324;-50
2023/07/02 00:47:11;;;;;;;3.90;3.40;;;17.20;1.00;;;;;;5137841;27;20175;-50
2023/07/02 00:49:37;;;;;;;4.63;3.87;;;17.20;1.00;;;;;;5138289;27;20199;-50
2023/07/02 00:52:03;;;;;;;5.10;4.70;;;17.30;99.90;;;;;;5120130;27;20836;-53
2023/07/02 00:54:30;;;;;;;4.50;4.10;;;17.30;99.90;;;;;;5137839;27;20291;-53
2023/07/02 00:56:55;;;;;;;5.20;4.10;;;17.20;1.00;;;;;;5120007;27;20428;-52
2023/07/02 00:59:21;;;;;;;4.33;3.93;;;17.20;99.90;;;;;;5137896;27;20857;-52
2023/07/02 01:01:49;;;;;;;4.73;4.23;;;17.10;1.00;;;;;;5138413;27;20511;-53
2023/07/02 01:04:17;;;;;;;3.90;3.60;;;17.10;1.00;;;;;;5137773;27;20341;-51
2023/07/02 01:06:43;;;;;;;4.10;3.80;;;17.10;99.90;;;;;;5137425;27;20405;-52
2023/07/02 01:09:10;;;;;;;4.70;3.80;;;17.10;99.90;;;;;;5136932;27;20555;-51
2023/07/02 01:11:40;;;;;;;4.80;3.63;;;17.00;99.90;;;;;;5137431;27;20478;-53
2023/07/02 01:14:09;;;;;;;4.13;3.73;;;16.90;99.90;;;;;;5119515;27;20527;-51
2023/07/02 01:16:36;;;;;;;4.17;3.40;;;16.90;99.90;;;;;;5118850;27;20456;-51
2023/07/02 01:19:04;;;;;;;4.13;3.33;;;17.00;99.90;;;;;;5119093;27;20433;-54
2023/07/02 01:21:32;;;;;;;4.20;3.80;;;16.90;83.60;;;;;;5119298;27;20428;-52
2023/07/02 01:24:00;;;;;;;3.80;3.50;;;16.90;99.90;;;;;;5137202;27;20516;-52
2023/07/02 01:26:34;;;;;;;4.00;3.63;;;17.00;99.90;;;;;;5136410;27;20846;-49
2023/07/02 01:29:12;;;;;;;4.33;3.93;;;17.00;18.00;;;;;;5119436;27;20517;-52
2023/07/02 01:31:38;;;;;;;4.30;3.90;;;17.00;99.90;;;;;;5136912;27;20424;-54
2023/07/02 01:34:04;;;;;;;3.67;3.37;;;16.90;56.40;;;;;;5119025;27;20439;-54
2023/07/02 01:36:30;;;;;;;4.17;3.50;;;17.00;99.90;;;;;;5136991;27;20412;-50
2023/07/02 01:38:57;;;;;;;4.00;3.47;;;17.00;99.90;;;;;;5118639;27;20186;-53
2023/07/02 01:41:22;;;;;;;4.37;3.97;;;17.10;99.90;;;;;;5136837;27;20219;-53
2023/07/02 01:43:48;;;;;;;4.83;4.37;;;17.20;1.00;;;;;;5118342;27;20764;-50
2023/07/02 01:46:14;;;;;;;4.90;3.60;;;17.10;1.00;;;;;;5136875;27;20179;-52
2023/07/02 01:48:39;;;;;;;4.00;3.60;;;17.00;1.00;;;;;;5136259;27;20210;-51
2023/07/02 01:51:05;;;;;;;3.57;3.27;;;16.90;9.00;;;;;;5136956;27;20228;-50
2023/07/02 01:53:30;;;;;;;4.47;3.83;;;16.80;99.90;;;;;;5136713;27;20279;-52
2023/07/02 01:55:56;;;;;;;3.67;3.37;;;16.70;99.90;;;;;;5136173;27;20258;-50
2023/07/02 01:58:22;;;;;;;4.00;3.70;;;16.60;99.90;;;;;;5135745;27;20545;-54
2023/07/02 02:00:48;;;;;;;4.70;4.17;;;16.50;99.90;;;;;;5136243;27;20251;-50
2023/07/02 02:03:14;;;;;;;3.47;3.17;;;16.40;1.00;;;;;;5135716;27;20179;-53
2023/07/02 02:05:39;;;;;;;6.03;4.10;;;16.40;1.00;;;;;;5135016;27;20594;-52
2023/07/02 02:08:05;;;;;;;4.00;3.60;;;16.40;1.00;;;;;;5135099;27;20575;-50
2023/07/02 02:10:30;;;;;;;4.40;4.00;;;16.40;1.00;;;;;;5135132;27;20167;-52
2023/07/02 02:12:56;;;;;;;4.17;3.77;;;16.40;1.00;;;;;;5135434;27;20484;-51
2023/07/02 02:15:21;;;;;;;5.83;4.33;;;16.40;1.00;;;;;;5133889;27;20183;-53
2023/07/02 02:17:47;;;;;;;4.30;3.90;;;16.50;1.00;;;;;;5115227;28;20182;-52
2023/07/02 02:20:13;;;;;;;4.23;3.40;;;16.50;99.90;;;;;;5133422;28;20182;-49
2023/07/02 02:22:38;;;;;;;3.97;3.57;;;16.60;99.90;;;;;;5135237;28;20167;-52
2023/07/02 02:25:04;;;;;;;5.43;4.07;;;16.60;99.90;;;;;;5133933;28;20215;-52
2023/07/02 02:27:30;;;;;;;3.53;3.20;;;16.70;99.90;;;;;;5132814;28;20269;-52
2023/07/02 02:29:56;;;;;;;4.83;3.40;;;16.80;99.90;;;;;;5132790;28;20345;-50
2023/07/02 02:32:22;;;;;;;5.53;4.90;;;17.00;1.00;;;;;;5133608;28;20516;-50
2023/07/02 02:34:48;;;;;;;4.37;3.47;;;17.00;1.00;;;;;;5133554;28;20236;-50
2023/07/02 02:37:13;;;;;;;4.33;3.50;;;17.10;1.00;;;;;;5133241;27;20436;-49
2023/07/02 02:39:39;;;;;;;4.67;3.83;;;17.10;1.00;;;;;;5118123;27;20588;-54
2023/07/02 02:42:04;;;;;;;4.47;3.77;;;17.20;99.90;;;;;;5137541;27;20167;-53
2023/07/02 02:44:32;;;;;;;6.17;4.13;;;17.20;1.00;;;;;;5138333;27;20533;-53
2023/07/02 02:46:57;;;;;;;6.30;3.70;;;17.10;1.00;;;;;;5138480;27;20572;-50
2023/07/02 02:49:23;;;;;;;4.27;3.17;;;17.10;1.00;;;;;;5138441;27;20468;-48
2023/07/02 02:51:49;;;;;;;4.87;4.37;;;17.00;1.00;;;;;;5136111;27;20629;-47
2023/07/02 02:54:14;;;;;;;4.13;3.53;;;16.90;99.90;;;;;;5136485;27;20212;-49
2023/07/02 02:56:40;;;;;;;4.70;3.30;;;16.90;99.90;;;;;;5118950;27;20171;-50
2023/07/02 02:59:05;;;;;;;4.40;3.40;;;16.90;99.90;;;;;;5138975;27;20179;-48
2023/07/02 03:01:32;;;;;;;4.53;3.83;;;16.80;10.10;;;;;;5139132;27;20202;-47
2023/07/02 03:04:00;;;;;;;4.87;4.30;;;16.80;99.90;;;;;;5139642;27;20179;-50
2023/07/02 03:06:26;;;;;;;10.40;4.83;;;16.70;1.00;;;;;;5139301;27;20424;-50
2023/07/02 03:08:52;;;;;;;4.30;3.90;;;16.60;1.00;;;;;;5121106;27;20494;-49
2023/07/02 03:11:17;;;;;;;6.03;4.03;;;16.50;99.90;;;;;;5138325;27;20203;-51
2023/07/02 03:13:43;;;;;;;5.70;4.70;;;16.40;1.00;;;;;;5139500;27;20171;-46
2023/07/02 03:16:08;;;;;;;6.90;4.07;;;16.20;1.00;;;;;;5138768;27;20179;-49
2023/07/02 03:18:34;;;;;;;4.93;4.30;;;16.10;13.50;;;;;;5138096;27;20201;-48
2023/07/02 03:21:00;;;;;;;6.00;4.90;;;15.90;99.90;;;;;;5137467;27;20189;-47
2023/07/02 03:23:26;;;;;;;6.53;5.00;;;15.80;99.90;;;;;;5138062;27;20668;-49
2023/07/02 03:25:51;;;;;;;5.30;4.83;;;15.70;99.90;;;;;;5137993;27;20644;-50
2023/07/02 03:28:17;;;;;;;4.70;4.07;;;15.60;99.90;;;;;;5137035;27;20253;-52
2023/07/02 03:30:42;;;;;;;5.13;4.63;;;15.50;99.90;;;;;;5136920;27;20517;-49
2023/07/02 03:33:09;;;;;;;4.83;4.40;;;15.50;99.90;;;;;;5136643;27;20171;-46
2023/07/02 03:35:35;;;;;;;4.70;4.13;;;15.40;99.90;;;;;;5135818;27;20207;-50
2023/07/02 03:38:00;;;;;;;5.03;4.10;;;15.40;99.90;;;;;;5134907;27;20787;-48
2023/07/02 03:40:26;;;;;;;5.33;4.40;;;15.30;1.00;;;;;;5136376;27;20170;-47
2023/07/02 03:42:51;;;;;;;7.83;4.73;;;15.20;1.00;;;;;;5137262;27;20227;-50
2023/07/02 03:45:17;;;;;;;4.67;4.20;;;15.20;1.00;;;;;;5136892;27;20520;-49
2023/07/02 03:47:43;;;;;;;4.80;4.30;;;15.20;1.00;;;;;;5137020;27;20239;-48
2023/07/02 03:50:09;;;;;;;6.00;4.80;;;15.20;1.00;;;;;;5136934;27;20175;-51
2023/07/02 03:52:35;;;;;;;6.00;5.20;;;15.20;1.00;;;;;;5136391;27;20175;-48
2023/07/02 03:55:00;;;;;;;4.33;3.93;;;15.10;1.00;;;;;;5136655;27;20432;-48
2023/07/02 03:57:26;;;;;;;5.13;4.60;;;15.20;1.00;;;;;;5137949;27;20182;-47
2023/07/02 03:59:52;;;;;;;5.60;5.10;;;15.10;1.00;;;;;;5138304;27;20176;-49
2023/07/02 04:02:18;;;;;;;5.67;4.47;;;15.10;1.00;;;;;;5138210;27;20243;-47
2023/07/02 04:04:43;;;;;;;8.13;6.00;;;15.10;1.00;;;;;;5137728;27;20827;-50
2023/07/02 04:07:09;;;;;;;5.40;4.90;;;15.10;1.00;;;;;;5136804;27;20224;-45
2023/07/02 04:09:35;;;;;;;6.13;4.73;;;15.20;1.00;;;;;;5138278;27;20556;-47
2023/07/02 04:12:01;;;;;;;7.50;5.30;;;15.20;1.00;;;;;;5137105;27;20175;-47
2023/07/02 04:14:27;;;;;;;6.63;4.80;;;15.30;1.00;;;;;;5137790;27;20196;-46
2023/07/02 04:16:52;;;;;;;6.10;4.37;;;15.40;1.00;;;;;;5137348;27;20408;-49
2023/07/02 04:19:18;;;;;;;6.53;4.30;;;15.40;1.00;;;;;;5137242;27;20182;-45
2023/07/02 04:21:43;;;;;;;6.80;5.00;;;15.50;1.00;;;;;;5136061;27;20238;-42
2023/07/02 04:24:09;;;;;;;4.60;4.10;;;15.50;1.00;;;;;;5137730;27;20309;-46
2023/07/02 04:26:36;;;;;;;5.13;4.73;;;15.50;1.00;;;;;;5137840;27;20275;-46
2023/07/02 04:29:02;;;;;;;6.27;4.50;;;15.60;1.00;;;;;;5137349;27;20576;-46
2023/07/02 04:31:28;;;;;;;5.00;4.10;;;15.60;99.90;;;;;;5138837;27;20184;-47
2023/07/02 04:33:53;;;;;;;4.73;4.33;;;15.60;99.90;;;;;;5138052;27;20274;-48
2023/07/02 04:36:19;;;;;;;6.10;4.23;;;15.70;99.90;;;;;;5136419;27;20576;-48
2023/07/02 04:38:44;;;;;;;4.50;4.10;;;15.70;99.90;;;;;;5136946;27;20583;-47
2023/07/02 04:41:10;;;;;;;4.57;4.17;;;15.80;99.90;;;;;;5137254;27;20194;-47
2023/07/02 04:43:36;;;;;;;5.50;4.83;;;15.90;99.90;;;;;;5137057;27;20258;-45
2023/07/02 04:46:02;;;;;;;5.10;4.23;;;16.00;99.90;;;;;;5135920;27;20195;-48
2023/07/02 04:48:28;;;;;;;4.93;4.43;;;16.00;99.90;;;;;;5134947;27;20885;-46
2023/07/02 04:50:54;;;;;;;5.23;4.50;;;16.10;99.90;;;;;;5136389;27;20424;-50
2023/07/02 04:53:19;;;;;;;5.80;4.60;;;16.20;99.90;;;;;;5136955;27;20194;-45
2023/07/02 04:55:45;;;;;;;4.67;4.20;;;16.20;99.90;;;;;;5137527;27;20175;-48
2023/07/02 04:58:10;;;;;;;4.90;3.67;;;16.20;99.90;;;;;;5135930;27;20296;-50
2023/07/02 05:00:36;;;;;;;5.17;4.20;;;16.30;99.90;;;;;;5134208;27;20188;-47
2023/07/02 05:03:02;;;;;;;4.23;3.30;;;16.30;99.90;;;;;;5134005;27;20290;-47
2023/07/02 05:05:27;;;;;;;6.40;4.10;;;16.30;31.80;;;;;;5136102;27;20255;-47
2023/07/02 05:07:54;;;;;;;4.30;3.90;;;16.30;1.00;;;;;;5136332;27;20194;-49
2023/07/02 05:10:20;;;;;;;4.53;3.63;;;16.20;1.00;;;;;;5136089;27;20183;-48
2023/07/02 05:12:46;;;;;;;4.80;4.17;;;16.20;15.60;;;;;;5137301;27;20424;-48
2023/07/02 05:15:12;;;;;;;4.30;3.90;;;16.20;60.40;;;;;;5137622;27;20186;-48
2023/07/02 05:17:37;;;;;;;5.70;4.40;;;16.30;18.30;;;;;;5138846;27;20511;-47
2023/07/02 05:20:07;;;;;;;8.30;4.60;;;16.20;6.90;;;;;;5139099;27;20435;-50
2023/07/02 05:22:32;;;;;;;6.03;3.90;;;16.20;62.20;;;;;;5135797;27;20179;-46
2023/07/02 05:24:58;;;;;;;4.20;3.80;;;16.20;11.10;;;;;;5136508;27;20583;-47
2023/07/02 05:27:24;;;;;;;5.40;4.20;;;16.20;12.50;;;;;;5137244;27;20195;-46
2023/07/02 05:29:49;;;;;;;8.77;5.40;;;16.20;1.00;;;;;;5137383;27;20531;-47
2023/07/02 05:32:15;;;;;;;7.90;5.23;;;16.20;1.00;;;;;;5137236;27;20190;-48
2023/07/02 05:34:44;;;;;;;6.00;5.17;;;16.20;1.00;;;;;;5138631;27;20171;-50
2023/07/02 05:37:10;;;;;;;8.43;6.17;;;16.20;1.00;;;;;;5121930;27;20302;-45
2023/07/02 05:39:35;;;;;;;6.93;5.23;;;16.30;1.00;;;;;;5120880;27;20455;-44
2023/07/02 05:42:01;;;;;;;8.47;5.77;;;16.30;1.00;;;;;;5119318;27;20420;-47
2023/07/02 05:44:26;;;;;;;9.07;5.80;;;16.40;99.90;;;;;;5137107;27;20163;-45
2023/07/02 05:46:52;;;;;;;6.33;5.73;;;16.50;99.90;;;;;;5137758;27;20236;-49
2023/07/02 05:49:17;;;;;;;13.00;6.83;;;16.60;12.70;;;;;;5137373;27;20319;-46
2023/07/02 05:51:43;;;;;;;7.70;6.40;;;16.60;99.90;;;;;;5137365;27;20530;-47
2023/07/02 05:54:09;;;;;;;9.60;6.80;;;16.60;1.00;;;;;;5137525;27;20178;-45
2023/07/02 05:56:34;;;;;;;8.43;6.60;;;16.60;99.90;;;;;;5133449;27;20190;-48
2023/07/02 05:59:00;;;;;;;9.23;6.73;;;16.60;1.00;;;;;;5136717;27;20507;-49
2023/07/02 06:01:25;;;;;;;9.20;5.17;;;16.70;99.90;;;;;;5137096;27;20403;-46
2023/07/02 06:03:51;;;;;;;8.00;5.67;;;16.80;99.90;;;;;;5136529;27;20167;-50
2023/07/02 06:06:17;;;;;;;8.47;6.40;;;16.80;1.00;;;;;;5135807;27;20239;-47
2023/07/02 06:08:43;;;;;;;8.53;6.60;;;17.00;99.90;;;;;;5117135;27;20534;-47
2023/07/02 06:11:10;;;;;;;9.90;6.70;;;17.10;99.90;;;;;;5135319;27;20419;-48
2023/07/02 06:13:36;;;;;;;10.30;7.33;;;17.20;1.00;;;;;;5134908;27;20420;-46
2023/07/02 06:16:01;;;;;;;9.80;6.63;;;17.40;1.00;;;;;;5133375;27;20549;-47
2023/07/02 06:18:28;;;;;;;8.53;7.10;;;17.50;1.00;;;;;;5135524;28;20171;-47
2023/07/02 06:20:54;;;;;;;9.50;6.93;;;17.50;1.00;;;;;;5135147;28;20259;-48
2023/07/02 06:23:20;;;;;;;9.97;7.93;;;17.60;99.90;;;;;;5116407;28;20450;-47
2023/07/02 06:25:45;;;;;;;10.67;7.77;;;17.60;99.90;;;;;;5133312;28;20472;-49
2023/07/02 06:28:11;;;;;;;11.90;7.93;;;17.50;99.90;;;;;;5134613;28;20275;-49
2023/07/02 06:30:36;;;;;;;9.67;7.47;;;17.60;1.00;;;;;;5133619;28;20175;-46
2023/07/02 06:33:02;;;;;;;10.77;8.00;;;17.70;99.90;;;;;;5133665;28;20261;-48
2023/07/02 06:35:28;;;;;;;14.23;9.50;;;18.00;1.00;;;;;;5133624;28;20185;-47
2023/07/02 06:37:53;;;;;;;14.77;9.00;;;18.20;1.00;;;;;;5134764;28;20354;-48
2023/07/02 06:40:20;;;;;;;12.63;9.20;;;18.00;99.90;;;;;;5134717;28;20171;-45
2023/07/02 06:42:46;;;;;;;16.13;8.70;;;18.00;99.90;;;;;;5136567;28;20231;-46
2023/07/02 06:45:11;;;;;;;12.73;10.07;;;18.00;99.90;;;;;;5135246;28;20799;-46
2023/07/02 06:47:37;;;;;;;13.43;10.57;;;18.10;99.90;;;;;;5135227;28;20171;-47
2023/07/02 06:50:03;;;;;;;14.80;10.57;;;18.10;1.00;;;;;;5135077;28;20592;-46
2023/07/02 06:52:29;;;;;;;13.80;10.47;;;18.20;1.00;;;;;;5134217;28;20243;-45
2023/07/02 06:54:54;;;;;;;14.57;11.70;;;18.20;99.90;;;;;;5134763;28;20409;-46
2023/07/02 06:57:20;;;;;;;13.27;11.47;;;18.30;80.30;;;;;;5133939;28;20610;-45
2023/07/02 06:59:46;;;;;;;16.33;11.53;;;18.30;99.90;;;;;;5134255;28;20189;-47
2023/07/02 07:02:11;;;;;;;14.90;12.73;;;18.10;99.90;;;;;;5135598;28;20485;-49
2023/07/02 07:04:37;;;;;;;15.20;12.80;;;18.30;1.00;;;;;;5134949;28;20183;-48
2023/07/02 07:07:03;;;;;;;19.80;12.83;;;18.50;99.90;;;;;;5135586;28;20194;-49
2023/07/02 07:09:29;;;;;;;23.27;13.07;;;18.60;99.90;;;;;;5135848;28;20263;-47
2023/07/02 07:11:55;;;;;;;19.17;13.70;;;18.70;1.00;;;;;;5117155;28;20492;-45
2023/07/02 07:14:21;;;;;;;18.53;12.93;;;18.70;1.00;;;;;;5136702;28;20425;-46
2023/07/02 07:16:46;;;;;;;17.80;12.50;;;19.00;1.00;;;;;;5118749;28;20270;-51
2023/07/02 07:19:12;;;;;;;19.73;13.73;;;19.00;99.90;;;;;;5136280;28;20533;-46
2023/07/02 07:21:38;;;;;;;18.47;14.47;;;19.30;88.90;;;;;;5116807;28;20179;-48
2023/07/02 07:24:04;;;;;;;18.40;14.63;;;19.40;1.00;;;;;;5133087;27;20222;-48
2023/07/02 07:26:29;;;;;;;21.63;15.20;;;19.50;1.00;;;;;;5137403;27;20213;-46
2023/07/02 07:28:55;;;;;;;23.43;15.60;;;19.60;99.90;;;;;;5137755;27;20518;-47
2023/07/02 07:31:21;;;;;;;19.50;15.60;;;19.50;99.90;;;;;;5136653;27;20190;-46
2023/07/02 07:33:47;;;;;;;22.37;13.87;;;19.10;99.90;;;;;;5137416;27;20412;-48
2023/07/02 07:36:13;;;;;;;19.10;15.37;;;19.10;99.90;;;;;;5137218;27;20529;-46
2023/07/02 07:38:39;;;;;;;19.43;16.33;;;19.10;99.90;;;;;;5135895;27;20179;-44
2023/07/02 07:41:05;;;;;;;19.00;16.17;;;19.10;99.90;;;;;;5137421;27;20432;-47
2023/07/02 07:43:30;;;;;;;24.20;14.90;;;19.00;99.90;;;;;;5136868;27;20198;-45
2023/07/02 07:45:56;;;;;;;23.40;15.83;;;19.20;99.90;;;;;;5137871;27;20194;-46
2023/07/02 07:48:22;;;;;;;23.00;16.03;;;19.20;99.90;;;;;;5136571;27;20206;-47
2023/07/02 07:50:48;;;;;;;21.50;16.30;;;19.30;99.90;;;;;;5133924;27;20194;-49
2023/07/02 07:53:14;;;;;;;21.97;15.50;;;19.30;99.90;;;;;;5136610;27;20424;-47
2023/07/02 07:55:40;;;;;;;20.23;15.13;;;19.40;99.90;;;;;;5136684;27;20938;-46
2023/07/02 07:58:05;;;;;;;23.67;17.63;;;19.50;99.90;;;;;;5137606;27;20315;-47
2023/07/02 08:00:31;;;;;;;20.00;16.87;;;19.80;99.90;;;;;;5138040;27;20199;-47
2023/07/02 08:02:56;;;;;;;21.17;16.97;;;20.20;57.90;;;;;;5101996;27;20588;-48
2023/07/02 08:05:23;;;;;;;20.20;14.57;;;20.30;30.50;;;;;;5136247;27;20178;-44
2023/07/02 08:07:48;;;;;;;19.07;15.37;;;20.60;3.50;;;;;;5136857;27;20174;-47
2023/07/02 08:10:14;;;;;;;24.07;15.93;;;20.80;1.00;;;;;;5131548;27;20436;-47
2023/07/02 08:12:40;;;;;;;19.53;15.57;;;20.90;1.00;;;;;;5133058;27;20179;-47
2023/07/02 08:15:06;;;;;;;22.23;16.70;;;20.90;1.00;;;;;;5134422;27;20179;-47
2023/07/02 08:17:31;;;;;;;19.27;16.30;;;20.70;1.00;;;;;;5134220;27;20183;-47
2023/07/02 08:19:57;;;;;;;18.93;15.00;;;20.60;1.00;;;;;;5133339;27;20527;-45
2023/07/02 08:22:23;;;;;;;21.90;14.37;;;20.40;1.00;;;;;;5134196;27;20179;-47
2023/07/02 08:24:51;;;;;;;23.00;16.43;;;20.40;1.00;;;;;;5116106;27;20507;-46
2023/07/02 08:27:19;;;;;;;23.50;16.53;;;20.60;1.00;;;;;;5096030;28;20188;-52
2023/07/02 08:29:46;;;;;;;20.97;15.40;;;20.90;1.00;;;;;;5094722;28;20470;-46
2023/07/02 08:32:12;;;;;;;22.67;15.83;;;20.60;1.00;;;;;;5094228;28;20430;-49
2023/07/02 08:34:38;;;;;;;21.20;15.57;;;20.30;1.00;;;;;;5094635;28;20449;-47
2023/07/02 08:37:04;;;;;;;20.47;15.70;;;20.20;1.00;;;;;;5095588;28;20173;-47
2023/07/02 08:39:29;;;;;;;18.87;16.03;;;20.40;1.00;;;;;;5092898;28;20190;-46
2023/07/02 08:41:55;;;;;;;20.30;15.33;;;20.50;1.00;;;;;;5092128;28;20572;-48
2023/07/02 08:44:21;;;;;;;18.27;14.80;;;20.80;1.00;;;;;;5092638;28;20185;-45
2023/07/02 08:46:50;;;;;;;18.80;14.33;;;20.80;1.00;;;;;;5071615;28;20188;-46
2023/07/02 08:49:17;;;;;;;19.10;14.90;;;20.90;1.00;;;;;;5067955;28;20545;-50
2023/07/02 08:51:47;;;;;;;18.40;14.63;;;21.20;1.00;;;;;;5111187;28;20424;-47
2023/07/02 08:54:14;;;;;;;18.20;13.87;;;21.30;1.00;;;;;;5113951;28;20437;-50
2023/07/02 08:56:39;;;;;;;17.80;14.20;;;21.60;1.00;;;;;;5093867;28;20589;-50
2023/07/02 08:59:10;;;;;;;16.20;13.83;;;21.90;1.00;;;;;;5114799;28;20486;-48
2023/07/02 09:01:52;;;;;;;17.07;13.13;;;22.30;1.00;;;;;;5093959;28;20589;-46
2023/07/02 09:04:25;;;;;;;17.43;13.70;;;22.40;1.00;;;;;;5115555;28;20497;-49
2023/07/02 09:07:08;;;;;;;20.13;13.67;;;22.60;1.00;;;;;;5116021;28;20442;-50
2023/07/02 09:09:47;;;;;;;19.83;14.27;;;22.80;1.00;;;;;;5116596;28;20473;-48
2023/07/02 09:12:27;;;;;;;15.83;13.47;;;22.80;1.00;;;;;;5117132;28;20424;-51
2023/07/02 09:15:00;;;;;;;15.93;13.50;;;22.70;1.00;;;;;;5116625;28;20425;-48
2023/07/02 09:17:30;;;;;;;20.23;14.10;;;22.40;1.00;;;;;;5094511;28;20422;-51
2023/07/02 09:19:57;;;;;;;14.70;12.50;;;22.20;1.00;;;;;;5114440;28;20490;-47
2023/07/02 09:22:23;;;;;;;16.53;13.03;;;22.40;1.00;;;;;;5116725;28;20936;-52
2023/07/02 09:24:54;;;;;;;16.60;13.30;;;22.40;1.00;;;;;;5124148;27;20596;-49
2023/07/02 09:27:20;;;;;;;17.43;13.40;;;22.50;1.00;;;;;;5135507;27;20234;-48
2023/07/02 09:29:51;;;;;;;17.93;13.40;;;23.00;1.00;;;;;;5136417;27;20481;-49
2023/07/02 09:32:25;;;;;;;18.50;14.10;;;23.40;1.00;;;;;;5118470;27;20441;-48
2023/07/02 09:34:50;;;;;;;17.57;14.97;;;23.30;1.00;;;;;;5135161;27;20421;-49
2023/07/02 09:37:16;;;;;;;18.47;15.20;;;23.10;1.00;;;;;;5118134;27;20514;-48
2023/07/02 09:39:42;;;;;;;19.77;15.87;;;23.00;1.00;;;;;;5135398;27;20190;-51
2023/07/02 09:42:09;;;;;;;19.57;15.47;;;22.50;1.00;;;;;;5116914;27;20507;-48
2023/07/02 09:44:35;;;;;;;20.80;17.43;;;22.10;1.00;;;;;;5116524;27;20461;-48
2023/07/02 09:47:02;;;;;;;20.33;15.93;;;21.90;1.00;;;;;;5134345;27;20548;-49
2023/07/02 09:49:32;;;;;;;24.93;18.10;;;22.00;1.00;;;;;;5134592;27;20464;-48
2023/07/02 09:52:00;;;;;;;23.60;18.07;;;22.10;1.00;;;;;;5134457;27;20433;-48
2023/07/02 09:54:26;;;;;;;20.47;16.60;;;22.00;1.00;;;;;;5134381;27;20806;-49
2023/07/02 09:56:53;;;;;;;19.73;16.03;;;21.90;1.00;;;;;;5133667;27;20417;-48
2023/07/02 09:59:19;;;;;;;21.37;18.30;;;21.70;1.00;;;;;;5134340;27;20428;-50
2023/07/02 10:01:45;;;;;;;19.10;17.10;;;21.80;1.00;;;;;;5134596;27;20585;-50
2023/07/02 10:04:18;;;;;;;19.20;16.73;;;22.00;1.00;;;;;;5098644;27;20183;-53
2023/07/02 10:06:50;;;;;;;18.83;16.83;;;22.50;1.00;;;;;;5134482;27;20163;-56
2023/07/02 10:09:16;;;;;;;21.37;17.23;;;22.70;1.00;;;;;;5133164;27;20838;-53
2023/07/02 10:11:43;;;;;;;20.37;17.60;;;22.90;1.00;;;;;;5130249;27;20531;-55
2023/07/02 10:14:14;;;;;;;22.73;17.57;;;23.40;1.00;;;;;;5133642;27;20416;-52
2023/07/02 10:16:53;;;;;;;22.10;16.33;;;23.20;1.00;;;;;;5134299;27;20745;-50
2023/07/02 10:19:19;;;;;;;20.80;16.87;;;23.10;1.00;;;;;;5134619;27;20439;-51
2023/07/02 10:21:45;;;;;;;20.43;15.90;;;23.10;1.00;;;;;;5134636;27;20446;-50
2023/07/02 10:24:15;;;;;;;24.20;17.87;;;23.30;1.00;;;;;;5134149;27;20544;-50
2023/07/02 10:27:00;;;;;;;24.80;18.67;;;23.30;1.00;;;;;;5134983;28;20448;-55
2023/07/02 10:29:27;;;;;;;21.03;17.43;;;23.00;1.00;;;;;;5134402;28;20464;-56
2023/07/02 10:31:57;;;;;;;21.00;18.50;;;23.40;1.00;;;;;;5118753;28;20429;-56
2023/07/02 10:34:32;;;;;;;20.43;17.57;;;23.20;1.00;;;;;;5136152;28;20433;-50
2023/07/02 10:36:59;;;;;;;21.80;17.50;;;23.00;1.00;;;;;;5116129;28;20488;-52
2023/07/02 10:39:26;;;;;;;20.17;15.93;;;23.10;1.00;;;;;;5134411;28;20885;-55
2023/07/02 10:41:53;;;;;;;18.73;16.73;;;23.00;1.00;;;;;;5134233;28;20429;-53
2023/07/02 10:44:18;;;;;;;21.17;16.33;;;23.10;1.00;;;;;;5117072;28;20519;-56
2023/07/02 10:46:45;;;;;;;21.30;16.60;;;23.10;1.00;;;;;;5135102;28;20460;-54
2023/07/02 10:49:11;;;;;;;17.50;15.37;;;23.20;1.00;;;;;;5134068;28;20203;-55
2023/07/02 10:51:38;;;;;;;17.53;15.60;;;23.40;1.00;;;;;;5116214;28;20423;-52
2023/07/02 10:54:04;;;;;;;20.20;15.57;;;23.80;1.00;;;;;;5135201;28;20404;-55
2023/07/02 10:56:31;;;;;;;18.37;15.50;;;24.00;1.00;;;;;;5133496;28;20435;-54
2023/07/02 10:58:57;;;;;;;21.40;16.53;;;24.30;1.00;;;;;;5117102;27;20532;-51
2023/07/02 11:01:23;;;;;;;18.90;15.23;;;24.20;1.00;;;;;;5137447;27;20477;-56
2023/07/02 11:03:56;;;;;;;19.17;16.10;;;24.00;1.00;;;;;;5135779;27;21192;-54
2023/07/02 11:06:22;;;;;;;18.47;15.40;;;23.70;1.00;;;;;;5136696;27;21217;-53
2023/07/02 11:08:47;;;;;;;18.50;16.10;;;23.90;1.00;;;;;;5116753;27;20480;-53
2023/07/02 11:11:13;;;;;;;17.33;15.03;;;24.40;1.00;;;;;;5135267;27;20565;-57
2023/07/02 11:13:46;;;;;;;16.97;15.07;;;25.10;1.00;;;;;;5136686;27;20171;-56
2023/07/02 11:16:25;;;;;;;18.20;15.10;;;25.10;1.00;;;;;;5135885;27;20431;-57
2023/07/02 11:18:55;;;;;;;19.87;16.80;;;25.10;1.00;;;;;;5117298;27;20404;-57
2023/07/02 11:21:20;;;;;;;18.03;15.80;;;24.90;1.00;;;;;;5118385;27;20659;-54
2023/07/02 11:23:46;;;;;;;18.80;15.37;;;24.70;1.00;;;;;;5118951;27;20583;-53
2023/07/02 11:26:12;;;;;;;19.03;16.67;;;24.60;1.00;;;;;;5137241;27;20183;-55
2023/07/02 11:28:50;;;;;;;18.27;16.30;;;24.50;1.00;;;;;;5119578;27;20503;-54
2023/07/02 11:31:25;;;;;;;19.03;16.93;;;24.70;1.00;;;;;;5102752;27;20195;-55
2023/07/02 11:33:51;;;;;;;16.60;14.80;;;25.20;1.00;;;;;;5109916;27;20432;-54
2023/07/02 11:36:22;;;;;;;21.87;16.37;;;25.40;1.00;;;;;;5090245;27;20409;-57
2023/07/02 11:38:49;;;;;;;18.67;16.70;;;25.70;1.00;;;;;;5107752;27;20261;-56
2023/07/02 11:41:15;;;;;;;18.97;17.00;;;26.10;1.00;;;;;;5126635;27;20482;-57
2023/07/02 11:43:40;;;;;;;20.47;17.97;;;26.30;1.00;;;;;;5116905;28;20437;-55
2023/07/02 11:46:06;;;;;;;18.40;16.47;;;26.50;1.00;;;;;;5117087;28;20417;-57
2023/07/02 11:48:32;;;;;;;17.60;14.73;;;26.20;1.00;;;;;;5081313;28;20299;-56
2023/07/02 11:50:57;;;;;;;18.33;16.10;;;26.00;1.00;;;;;;5124620;27;20573;-56
2023/07/02 11:53:23;;;;;;;16.77;15.07;;;26.30;1.00;;;;;;5118812;27;20190;-51
2023/07/02 11:55:49;;;;;;;17.60;15.63;;;26.70;1.00;;;;;;5101219;27;20456;-53
2023/07/02 11:58:15;;;;;;;19.20;16.90;;;26.80;1.00;;;;;;5117852;27;20841;-56
2023/07/02 12:00:40;;;;;;;17.80;15.77;;;26.70;1.00;;;;;;5109470;27;20515;-54
2023/07/02 12:03:06;;;;;;;18.40;16.30;;;26.80;1.00;;;;;;5124356;27;20175;-55
2023/07/02 12:05:32;;;;;;;19.10;16.47;;;26.70;1.00;;;;;;5125876;27;20172;-57
2023/07/02 12:07:57;;;;;;;17.40;15.60;;;26.30;1.00;;;;;;5123849;27;20184;-56
2023/07/02 12:10:23;;;;;;;19.60;17.50;;;26.60;1.00;;;;;;5124435;27;20764;-56
2023/07/02 12:12:49;;;;;;;17.10;15.10;;;26.30;1.00;;;;;;5106655;27;20163;-59
2023/07/02 12:15:14;;;;;;;18.47;16.13;;;25.70;1.00;;;;;;5126603;27;20213;-63
2023/07/02 12:17:40;;;;;;;21.47;15.90;;;25.60;1.00;;;;;;5124597;27;20595;-58
2023/07/02 12:20:06;;;;;;;19.97;15.70;;;26.10;1.00;;;;;;5131258;27;20561;-59
2023/07/02 12:22:32;;;;;;;19.50;16.03;;;26.50;1.00;;;;;;5134353;27;20521;-55
2023/07/02 12:24:57;;;;;;;17.73;15.63;;;27.10;1.00;;;;;;5135596;27;20507;-57
2023/07/02 12:27:25;;;;;;;18.50;15.40;;;27.40;1.00;;;;;;5134010;27;20184;-54
2023/07/02 12:29:50;;;;;;;19.03;15.73;;;27.40;1.00;;;;;;5108225;27;20573;-58
2023/07/02 12:32:16;;;;;;;17.23;14.97;;;27.10;1.00;;;;;;5126108;27;20469;-57
2023/07/02 12:34:42;;;;;;;17.90;16.00;;;26.90;1.00;;;;;;5124837;27;20232;-58
2023/07/02 12:37:07;;;;;;;18.83;15.97;;;26.70;1.00;;;;;;5124656;27;20191;-58
2023/07/02 12:39:33;;;;;;;16.17;14.53;;;26.90;1.00;;;;;;5125558;27;20186;-57